createdAt,value
2024-04-09T00:00:35.575Z,39.37
2024-04-09T00:01:38.202Z,41.40
2024-04-09T00:02:40.079Z,40.66
2024-04-09T00:03:42.484Z,41.03
2024-04-09T00:04:44.342Z,40.77
2024-04-09T00:05:46.385Z,40.26
2024-04-09T00:06:47.952Z,40.17
2024-04-09T00:07:50.112Z,40.25
2024-04-09T00:08:52.023Z,40.57
2024-04-09T00:09:53.606Z,40.68
2024-04-09T00:10:55.506Z,41.05
2024-04-09T00:11:59.875Z,40.60
2024-04-09T00:13:01.843Z,41.37
2024-04-09T00:14:05.521Z,42.60
2024-04-09T00:15:09.088Z,42.24
2024-04-09T00:16:13.641Z,41.90
2024-04-09T00:17:20.428Z,42.38
2024-04-09T00:18:22.229Z,42.44
2024-04-09T00:19:25.422Z,41.40
2024-04-09T00:20:27.249Z,41.63
2024-04-09T00:21:31.130Z,42.07
2024-04-09T00:22:33.580Z,42.33
2024-04-09T00:23:36.686Z,41.83
2024-04-09T00:24:38.458Z,43.08
2024-04-09T00:25:42.957Z,42.41
2024-04-09T00:26:45.500Z,42.43
2024-04-09T00:27:48.286Z,42.38
2024-04-09T00:28:49.893Z,41.17
2024-04-09T00:29:51.439Z,41.31
2024-04-09T00:30:54.230Z,40.60
2024-04-09T00:31:56.023Z,41.49
2024-04-09T00:32:57.641Z,41.98
2024-04-09T00:33:59.638Z,41.43
2024-04-09T00:35:01.826Z,42.25
2024-04-09T00:36:03.810Z,41.85
2024-04-09T00:37:05.939Z,42.71
2024-04-09T00:38:08.066Z,42.28
2024-04-09T00:39:21.299Z,42.39
2024-04-09T00:40:23.205Z,42.23
2024-04-09T00:41:24.761Z,41.95
2024-04-09T00:42:27.125Z,42.32
2024-04-09T00:43:29.049Z,42.59
2024-04-09T00:44:32.671Z,41.60
2024-04-09T00:45:34.481Z,41.45
2024-04-09T00:46:36.560Z,41.91
2024-04-09T00:47:39.740Z,41.75
2024-04-09T00:48:44.192Z,41.52
2024-04-09T00:49:47.128Z,41.54
2024-04-09T00:50:49.445Z,41.30
2024-04-09T00:51:53.771Z,41.11
2024-04-09T00:52:57.023Z,42.01
2024-04-09T00:53:59.020Z,41.66
2024-04-09T00:55:03.727Z,42.56
2024-04-09T00:56:07.049Z,42.38
2024-04-09T00:57:08.749Z,42.39
2024-04-09T00:58:13.056Z,42.87
2024-04-09T00:59:17.113Z,42.86
2024-04-09T01:00:21.130Z,43.21
2024-04-09T01:01:22.924Z,43.57
2024-04-09T01:02:24.824Z,44.27
2024-04-09T01:03:27.932Z,45.74
2024-04-09T01:04:30.290Z,47.11
2024-04-09T01:05:32.083Z,48.34
2024-04-09T01:06:33.793Z,48.62
2024-04-09T01:07:36.169Z,49.27
2024-04-09T01:08:37.953Z,48.19
2024-04-09T01:09:42.820Z,47.84
2024-04-09T01:10:44.465Z,46.91
2024-04-09T01:11:46.185Z,46.01
2024-04-09T01:12:48.775Z,45.88
2024-04-09T01:13:51.661Z,45.47
2024-04-09T01:14:53.963Z,44.60
2024-04-09T01:15:55.902Z,44.96
2024-04-09T01:16:57.480Z,46.00
2024-04-09T01:17:59.718Z,46.98
2024-04-09T01:19:01.895Z,47.73
2024-04-09T01:20:04.231Z,47.75
2024-04-09T01:21:06.138Z,48.14
2024-04-09T01:22:07.722Z,48.27
2024-04-09T01:23:09.287Z,48.98
2024-04-09T01:24:10.945Z,49.26
2024-04-09T01:25:12.724Z,48.78
2024-04-09T01:26:15.444Z,50.34
2024-04-09T01:27:17.221Z,49.66
2024-04-09T01:28:19.754Z,51.65
2024-04-09T01:29:23.062Z,49.93
2024-04-09T01:30:25.064Z,49.99
2024-04-09T01:31:26.945Z,49.26
2024-04-09T01:32:28.784Z,49.63
2024-04-09T01:33:30.825Z,49.34
2024-04-09T01:34:33.273Z,50.83
2024-04-09T01:35:35.101Z,52.14
2024-04-09T01:36:37.496Z,50.74
2024-04-09T01:37:39.276Z,50.40
2024-04-09T01:38:41.066Z,49.87
2024-04-09T01:39:42.629Z,48.60
2024-04-09T01:40:44.319Z,49.22
2024-04-09T01:41:45.936Z,49.39
2024-04-09T01:42:47.531Z,49.75
2024-04-09T01:43:49.129Z,49.77
2024-04-09T01:44:50.761Z,49.42
2024-04-09T01:45:52.378Z,52.42
2024-04-09T01:46:53.990Z,56.06
2024-04-09T01:47:55.775Z,56.66
2024-04-09T01:48:57.720Z,55.22
2024-04-09T01:49:59.338Z,53.19
2024-04-09T01:51:01.019Z,52.95
2024-04-09T01:52:03.584Z,53.90
2024-04-09T01:53:06.605Z,54.40
2024-04-09T01:54:08.286Z,55.64
2024-04-09T01:55:09.920Z,54.84
2024-04-09T01:56:11.503Z,53.44
2024-04-09T01:57:13.112Z,53.18
2024-04-09T01:58:15.001Z,52.33
2024-04-09T01:59:16.568Z,52.67
2024-04-09T02:00:22.045Z,52.50
2024-04-09T02:01:23.738Z,51.80
2024-04-09T02:02:25.356Z,49.55
2024-04-09T02:03:27.363Z,49.24
2024-04-09T02:04:29.477Z,48.43
2024-04-09T02:05:36.971Z,48.49
2024-04-09T02:06:38.650Z,49.05
2024-04-09T02:07:40.295Z,48.85
2024-04-09T02:08:42.332Z,48.71
2024-04-09T02:09:44.376Z,48.68
2024-04-09T02:10:46.023Z,49.39
2024-04-09T02:11:47.608Z,49.67
2024-04-09T02:12:50.078Z,49.09
2024-04-09T02:13:51.696Z,49.64
2024-04-09T02:14:54.274Z,49.62
2024-04-09T02:15:59.912Z,49.77
2024-04-09T02:17:02.870Z,49.20
2024-04-09T02:18:04.963Z,49.62
2024-04-09T02:19:07.744Z,48.72
2024-04-09T02:20:11.658Z,49.74
2024-04-09T02:21:16.177Z,49.22
2024-04-09T02:22:18.064Z,49.18
2024-04-09T02:23:20.355Z,49.17
2024-04-09T02:24:23.425Z,49.85
2024-04-09T02:25:25.086Z,49.79
2024-04-09T02:26:27.448Z,49.41
2024-04-09T02:27:29.123Z,49.30
2024-04-09T02:28:30.917Z,49.18
2024-04-09T02:29:32.596Z,49.32
2024-04-09T02:30:34.794Z,49.37
2024-04-09T02:31:37.062Z,50.25
2024-04-09T02:32:38.695Z,50.10
2024-04-09T02:33:40.393Z,49.76
2024-04-09T02:34:42.021Z,48.64
2024-04-09T02:35:43.762Z,49.40
2024-04-09T02:36:45.951Z,48.01
2024-04-09T02:37:48.389Z,48.66
2024-04-09T02:38:50.249Z,48.51
2024-04-09T02:39:52.696Z,49.37
2024-04-09T02:40:54.483Z,48.50
2024-04-09T02:41:56.156Z,48.74
2024-04-09T02:42:57.986Z,48.85
2024-04-09T02:43:59.562Z,50.04
2024-04-09T02:45:01.164Z,49.54
2024-04-09T02:46:03.202Z,50.49
2024-04-09T02:47:06.191Z,50.08
2024-04-09T02:48:08.120Z,50.12
2024-04-09T02:49:09.944Z,50.28
2024-04-09T02:50:11.612Z,50.58
2024-04-09T02:51:13.239Z,50.35
2024-04-09T02:52:14.836Z,50.08
2024-04-09T02:53:16.718Z,50.30
2024-04-09T02:54:18.303Z,50.06
2024-04-09T02:55:19.861Z,49.74
2024-04-09T02:56:21.446Z,49.69
2024-04-09T02:57:23.261Z,48.43
2024-04-09T02:58:24.851Z,49.63
2024-04-09T02:59:26.529Z,49.33
2024-04-09T03:00:29.923Z,49.90
2024-04-09T03:01:31.945Z,48.52
2024-04-09T03:02:33.679Z,48.07
2024-04-09T03:03:38.908Z,47.97
2024-04-09T03:04:40.707Z,46.71
2024-04-09T03:05:42.272Z,46.30
2024-04-09T03:06:44.078Z,46.45
2024-04-09T03:07:46.832Z,44.86
2024-04-09T03:08:48.784Z,45.93
2024-04-09T03:09:50.352Z,46.41
2024-04-09T03:10:52.821Z,46.72
2024-04-09T03:11:54.680Z,46.52
2024-04-09T03:12:56.332Z,47.51
2024-04-09T03:13:57.908Z,47.54
2024-04-09T03:14:59.577Z,47.53
2024-04-09T03:16:01.211Z,48.21
2024-04-09T03:17:02.833Z,47.60
2024-04-09T03:18:05.473Z,48.40
2024-04-09T03:19:07.493Z,47.33
2024-04-09T03:20:11.413Z,48.07
2024-04-09T03:21:13.573Z,48.70
2024-04-09T03:22:15.509Z,48.89
2024-04-09T03:23:17.333Z,48.68
2024-04-09T03:24:18.967Z,49.22
2024-04-09T03:25:20.704Z,49.24
2024-04-09T03:26:24.588Z,49.07
2024-04-09T03:27:27.503Z,49.55
2024-04-09T03:28:29.192Z,49.78
2024-04-09T03:29:30.792Z,50.02
2024-04-09T03:30:33.274Z,49.82
2024-04-09T03:31:35.051Z,50.72
2024-04-09T03:32:36.999Z,50.48
2024-04-09T03:33:38.953Z,50.36
2024-04-09T03:34:41.044Z,50.83
2024-04-09T03:35:42.616Z,51.30
2024-04-09T03:36:44.226Z,51.92
2024-04-09T03:37:45.976Z,51.73
2024-04-09T03:38:47.558Z,51.99
2024-04-09T03:39:49.765Z,51.83
2024-04-09T03:41:03.657Z,52.29
2024-04-09T03:42:05.704Z,52.75
2024-04-09T03:43:07.334Z,52.75
2024-04-09T03:44:09.043Z,52.74
2024-04-09T03:45:12.655Z,53.32
2024-04-09T03:46:16.192Z,52.43
2024-04-09T03:47:18.120Z,53.19
2024-04-09T03:48:19.794Z,53.24
2024-04-09T03:49:21.837Z,53.58
2024-04-09T03:50:23.526Z,53.42
2024-04-09T03:51:26.026Z,53.71
2024-04-09T03:52:27.716Z,53.94
2024-04-09T03:53:29.792Z,54.15
2024-04-09T03:54:32.898Z,53.52
2024-04-09T03:55:34.547Z,54.27
2024-04-09T03:56:36.718Z,54.31
2024-04-09T03:57:39.999Z,54.12
2024-04-09T03:58:43.274Z,53.34
2024-04-09T03:59:44.888Z,53.88
2024-04-09T04:01:07.364Z,53.48
2024-04-09T04:02:10.816Z,53.32
2024-04-09T04:03:12.492Z,54.00
2024-04-09T04:04:14.848Z,53.87
2024-04-09T04:05:16.478Z,53.49
2024-04-09T04:06:18.490Z,54.63
2024-04-09T04:07:20.116Z,54.42
2024-04-09T04:08:33.567Z,54.54
2024-04-09T04:09:35.227Z,54.76
2024-04-09T04:10:37.954Z,54.50
2024-04-09T04:11:39.839Z,54.77
2024-04-09T04:12:41.438Z,54.98
2024-04-09T04:13:43.392Z,54.84
2024-04-09T04:14:46.293Z,55.17
2024-04-09T04:15:59.943Z,55.04
2024-04-09T04:17:04.958Z,54.84
2024-04-09T04:18:06.693Z,55.61
2024-04-09T04:19:08.401Z,55.67
2024-04-09T04:20:10.773Z,55.24
2024-04-09T04:21:17.475Z,55.68
2024-04-09T04:22:19.118Z,55.49
2024-04-09T04:23:20.706Z,56.28
2024-04-09T04:24:22.467Z,56.90
2024-04-09T04:25:24.060Z,57.47
2024-04-09T04:26:26.801Z,56.60
2024-04-09T04:27:28.399Z,57.34
2024-04-09T04:28:34.803Z,57.59
2024-04-09T04:29:36.416Z,57.74
2024-04-09T04:30:38.108Z,59.22
2024-04-09T04:31:39.902Z,59.58
2024-04-09T04:32:41.746Z,60.78
2024-04-09T04:33:45.173Z,60.89
2024-04-09T04:34:47.206Z,61.15
2024-04-09T04:35:48.971Z,61.34
2024-04-09T04:36:50.711Z,61.40
2024-04-09T04:37:52.367Z,61.00
2024-04-09T04:38:53.938Z,61.49
2024-04-09T04:39:55.521Z,60.13
2024-04-09T04:40:57.095Z,62.29
2024-04-09T04:42:00.130Z,63.38
2024-04-09T04:43:01.790Z,62.94
2024-04-09T04:44:03.406Z,63.37
2024-04-09T04:45:05.355Z,64.70
2024-04-09T04:46:10.571Z,62.86
2024-04-09T04:47:12.176Z,64.85
2024-04-09T04:48:14.845Z,64.61
2024-04-09T04:49:17.045Z,64.66
2024-04-09T04:50:18.912Z,65.44
2024-04-09T04:51:20.516Z,65.90
2024-04-09T04:52:22.215Z,65.53
2024-04-09T04:53:24.389Z,65.78
2024-04-09T04:54:26.200Z,64.19
2024-04-09T04:55:28.482Z,65.12
2024-04-09T04:56:31.480Z,64.82
2024-04-09T04:57:33.408Z,65.13
2024-04-09T04:58:35.913Z,66.31
2024-04-09T04:59:38.288Z,66.36
2024-04-09T05:00:41.606Z,66.66
2024-04-09T05:01:43.328Z,66.12
2024-04-09T05:02:45.075Z,64.63
2024-04-09T05:03:46.897Z,64.75
2024-04-09T05:04:54.537Z,65.58
2024-04-09T05:05:56.116Z,66.98
2024-04-09T05:06:57.736Z,67.00
2024-04-09T05:07:59.387Z,67.84
2024-04-09T05:09:00.980Z,68.09
2024-04-09T05:10:03.121Z,68.22
2024-04-09T05:11:09.940Z,69.59
2024-04-09T05:12:11.695Z,68.71
2024-04-09T05:13:13.297Z,69.55
2024-04-09T05:14:14.861Z,69.96
2024-04-09T05:15:17.562Z,71.15
2024-04-09T05:16:19.408Z,72.25
2024-04-09T05:17:21.056Z,71.70
2024-04-09T05:18:22.771Z,72.28
2024-04-09T05:19:24.535Z,72.14
2024-04-09T05:20:30.552Z,72.58
2024-04-09T05:21:32.261Z,73.20
2024-04-09T05:22:33.855Z,73.16
2024-04-09T05:23:35.449Z,74.69
2024-04-09T05:24:40.312Z,74.87
2024-04-09T05:25:41.938Z,75.25
2024-04-09T05:26:43.525Z,75.56
2024-04-09T05:27:48.076Z,77.50
2024-04-09T05:28:49.956Z,75.76
2024-04-09T05:29:51.611Z,74.77
2024-04-09T05:30:53.241Z,75.20
2024-04-09T05:31:55.257Z,74.28
2024-04-09T05:32:57.043Z,76.46
2024-04-09T05:33:58.859Z,76.73
2024-04-09T05:35:00.459Z,77.25
2024-04-09T05:36:02.122Z,76.21
2024-04-09T05:37:03.879Z,75.92
2024-04-09T05:38:05.906Z,77.24
2024-04-09T05:39:09.418Z,75.45
2024-04-09T05:40:12.006Z,75.55
2024-04-09T05:41:13.569Z,76.03
2024-04-09T05:42:16.000Z,76.42
2024-04-09T05:43:19.647Z,76.22
2024-04-09T05:44:21.290Z,76.91
2024-04-09T05:45:23.309Z,77.47
2024-04-09T05:46:25.003Z,77.54
2024-04-09T05:47:26.723Z,78.91
2024-04-09T05:48:29.237Z,78.90
2024-04-09T05:49:31.077Z,78.43
2024-04-09T05:50:33.253Z,79.05
2024-04-09T05:51:35.431Z,80.01
2024-04-09T05:52:37.578Z,80.02
2024-04-09T05:53:39.394Z,79.89
2024-04-09T05:54:45.222Z,82.00
2024-04-09T05:55:56.784Z,83.13
2024-04-09T05:56:58.761Z,83.27
2024-04-09T05:58:00.392Z,82.39
2024-04-09T05:59:02.101Z,84.26
2024-04-09T06:00:09.913Z,85.14
2024-04-09T06:01:16.209Z,84.71
2024-04-09T06:02:18.007Z,84.44
2024-04-09T06:03:19.991Z,85.23
2024-04-09T06:04:21.844Z,85.63
2024-04-09T06:05:23.543Z,85.51
2024-04-09T06:06:25.237Z,86.15
2024-04-09T06:07:29.571Z,87.09
2024-04-09T06:08:32.357Z,87.47
2024-04-09T06:09:34.060Z,87.60
2024-04-09T06:10:36.726Z,88.26
2024-04-09T06:11:38.897Z,87.88
2024-04-09T06:12:40.968Z,87.58
2024-04-09T06:13:42.695Z,87.78
2024-04-09T06:14:44.482Z,86.96
2024-04-09T06:15:46.199Z,87.39
2024-04-09T06:16:48.228Z,89.08
2024-04-09T06:17:49.838Z,88.13
2024-04-09T06:18:51.580Z,88.80
2024-04-09T06:19:56.092Z,89.29
2024-04-09T06:20:57.816Z,89.00
2024-04-09T06:21:59.429Z,88.21
2024-04-09T06:23:01.184Z,88.41
2024-04-09T06:24:02.746Z,90.18
2024-04-09T06:25:04.765Z,89.58
2024-04-09T06:26:06.634Z,89.27
2024-04-09T06:27:08.386Z,90.13
2024-04-09T06:28:09.985Z,88.92
2024-04-09T06:29:11.557Z,88.46
2024-04-09T06:30:13.353Z,87.64
2024-04-09T06:31:14.981Z,90.00
2024-04-09T06:32:16.860Z,88.87
2024-04-09T06:33:18.617Z,89.48
2024-04-09T06:34:20.549Z,88.95
2024-04-09T06:35:23.023Z,88.82
2024-04-09T06:36:27.439Z,90.25
2024-04-09T06:37:31.014Z,89.45
2024-04-09T06:38:32.609Z,88.53
2024-04-09T06:39:34.222Z,88.51
2024-04-09T06:40:37.434Z,89.65
2024-04-09T06:41:39.051Z,90.07
2024-04-09T06:42:40.799Z,90.06
2024-04-09T06:43:42.423Z,89.53
2024-04-09T06:44:44.193Z,89.42
2024-04-09T06:45:46.048Z,90.79
2024-04-09T06:46:47.716Z,90.18
2024-04-09T06:47:49.333Z,92.20
2024-04-09T06:48:51.185Z,91.57
2024-04-09T06:49:52.848Z,90.42
2024-04-09T06:50:54.459Z,90.92
2024-04-09T06:51:56.064Z,93.10
2024-04-09T06:52:57.651Z,92.10
2024-04-09T06:53:59.392Z,92.46
2024-04-09T06:55:01.058Z,92.38
2024-04-09T06:56:02.718Z,93.90
2024-04-09T06:57:04.842Z,94.97
2024-04-09T06:58:06.835Z,95.41
2024-04-09T06:59:08.464Z,94.96
2024-04-09T07:00:10.446Z,96.15
2024-04-09T07:01:12.090Z,96.20
2024-04-09T07:02:13.735Z,95.68
2024-04-09T07:03:15.404Z,97.25
2024-04-09T07:04:17.247Z,97.13
2024-04-09T07:05:18.945Z,98.47
2024-04-09T07:06:20.631Z,98.81
2024-04-09T07:07:22.517Z,99.36
2024-04-09T07:08:24.360Z,100.00
2024-04-09T07:09:26.195Z,100.00
2024-04-09T07:10:29.120Z,100.00
2024-04-09T07:11:30.903Z,100.00
2024-04-09T07:12:34.285Z,100.00
2024-04-09T07:13:39.792Z,100.00
2024-04-09T07:14:43.022Z,100.00
2024-04-09T07:15:45.109Z,100.00
2024-04-09T07:16:47.849Z,100.00
2024-04-09T07:17:50.369Z,100.00
2024-04-09T07:18:52.343Z,100.00
2024-04-09T07:19:56.801Z,100.00
2024-04-09T07:20:58.443Z,100.00
2024-04-09T07:22:00.036Z,100.00
2024-04-09T07:23:02.470Z,100.00
2024-04-09T07:24:06.516Z,100.00
2024-04-09T07:25:11.269Z,100.00
2024-04-09T07:26:12.844Z,100.00
2024-04-09T07:27:14.465Z,100.00
2024-04-09T07:28:16.041Z,100.00
2024-04-09T07:29:19.657Z,100.00
2024-04-09T07:30:21.569Z,100.00
2024-04-09T07:31:23.278Z,100.00
2024-04-09T07:32:25.604Z,100.00
2024-04-09T07:33:27.246Z,100.00
2024-04-09T07:34:29.152Z,100.00
2024-04-09T07:35:32.214Z,100.00
2024-04-09T07:36:35.454Z,100.00
2024-04-09T07:37:37.091Z,100.00
2024-04-09T07:38:40.637Z,100.00
2024-04-09T07:39:46.021Z,100.00
2024-04-09T07:40:48.137Z,100.00
2024-04-09T07:41:49.870Z,100.00
2024-04-09T07:42:51.578Z,100.00
2024-04-09T07:43:56.917Z,100.00
2024-04-09T07:44:59.359Z,100.00
2024-04-09T07:46:02.037Z,100.00
2024-04-09T07:47:04.435Z,100.00
2024-04-09T07:48:06.686Z,100.00
2024-04-09T07:49:08.369Z,100.00
2024-04-09T07:50:12.962Z,100.00
2024-04-09T07:51:14.741Z,100.00
2024-04-09T07:52:16.638Z,100.00
2024-04-09T07:53:18.738Z,100.00
2024-04-09T07:54:20.398Z,100.00
2024-04-09T07:55:22.256Z,100.00
2024-04-09T07:56:25.358Z,100.00
2024-04-09T07:57:28.012Z,100.00
2024-04-09T07:58:29.860Z,100.00
2024-04-09T07:59:31.683Z,100.00
2024-04-09T08:00:33.587Z,100.00
2024-04-09T08:01:36.088Z,100.00
2024-04-09T08:02:37.762Z,100.00
2024-04-09T08:03:39.678Z,100.00
2024-04-09T08:04:41.793Z,100.00
2024-04-09T08:05:43.625Z,100.00
2024-04-09T08:06:46.858Z,100.00
2024-04-09T08:07:48.756Z,100.00
2024-04-09T08:08:52.404Z,100.00
2024-04-09T08:09:54.077Z,100.00
2024-04-09T08:10:55.741Z,100.00
2024-04-09T08:11:57.555Z,100.00
2024-04-09T08:13:00.910Z,100.00
2024-04-09T08:14:02.798Z,100.00
2024-04-09T08:15:05.008Z,100.00
2024-04-09T08:16:07.347Z,100.00
2024-04-09T08:17:08.909Z,100.00
2024-04-09T08:18:10.587Z,100.00
2024-04-09T08:19:12.886Z,100.00
2024-04-09T08:20:18.429Z,100.00
2024-04-09T08:21:22.749Z,100.00
2024-04-09T08:22:24.622Z,100.00
2024-04-09T08:23:26.177Z,100.00
2024-04-09T08:24:27.834Z,100.00
2024-04-09T08:25:29.484Z,100.00
2024-04-09T08:26:31.080Z,100.00
2024-04-09T08:27:39.977Z,100.00
2024-04-09T08:28:43.367Z,100.00
2024-04-09T08:29:45.959Z,100.00
2024-04-09T08:30:49.839Z,100.00
2024-04-09T08:31:51.748Z,100.00
2024-04-09T08:32:53.669Z,100.00
2024-04-09T08:33:55.541Z,100.00
2024-04-09T08:34:57.280Z,100.00
2024-04-09T08:35:58.967Z,100.00
2024-04-09T08:37:00.774Z,100.00
2024-04-09T08:38:02.564Z,100.00
2024-04-09T08:39:05.799Z,100.00
2024-04-09T08:40:11.303Z,100.00
2024-04-09T08:41:13.296Z,100.00
2024-04-09T08:42:17.360Z,100.00
2024-04-09T08:43:19.622Z,100.00
2024-04-09T08:44:24.568Z,100.00
2024-04-09T08:45:27.390Z,100.00
2024-04-09T08:46:33.201Z,100.00
2024-04-09T08:47:36.067Z,100.00
2024-04-09T08:48:40.626Z,100.00
2024-04-09T08:49:42.502Z,100.00
2024-04-09T08:50:52.081Z,100.00
2024-04-09T08:51:56.128Z,100.00
2024-04-09T08:52:59.733Z,100.00
2024-04-09T08:54:01.796Z,100.00
2024-04-09T08:55:06.631Z,100.00
2024-04-09T08:56:08.290Z,100.00
2024-04-09T08:57:09.952Z,100.00
2024-04-09T08:58:13.536Z,100.00
2024-04-09T08:59:15.156Z,100.00
2024-04-09T09:00:20.052Z,100.00
2024-04-09T09:01:29.600Z,100.00
2024-04-09T09:02:31.564Z,100.00
2024-04-09T09:03:33.310Z,100.00
2024-04-09T09:04:39.008Z,100.00
2024-04-09T09:05:40.749Z,100.00
2024-04-09T09:06:45.603Z,100.00
2024-04-09T09:08:00.035Z,100.00
2024-04-09T09:09:02.824Z,100.00
2024-04-09T09:10:05.057Z,100.00
2024-04-09T09:11:06.799Z,100.00
2024-04-09T09:12:08.651Z,100.00
2024-04-09T09:13:10.302Z,100.00
2024-04-09T09:14:12.717Z,100.00
2024-04-09T09:15:22.171Z,100.00
2024-04-09T09:16:23.852Z,100.00
2024-04-09T09:17:26.407Z,100.00
2024-04-09T09:18:28.392Z,100.00
2024-04-09T09:19:35.246Z,100.00
2024-04-09T09:20:36.858Z,100.00
2024-04-09T09:21:43.241Z,100.00
2024-04-09T09:22:47.039Z,100.00
2024-04-09T09:23:58.629Z,100.00
2024-04-09T09:25:00.956Z,100.00
2024-04-09T09:26:03.680Z,100.00
2024-04-09T09:27:06.955Z,100.00
2024-04-09T09:28:11.677Z,100.00
2024-04-09T09:29:15.592Z,100.00
2024-04-09T09:30:17.328Z,100.00
2024-04-09T09:31:20.137Z,100.00
2024-04-09T09:32:23.013Z,100.00
2024-04-09T09:33:27.831Z,100.00
2024-04-09T09:34:29.476Z,100.00
2024-04-09T09:35:36.482Z,100.00
2024-04-09T09:36:40.013Z,100.00
2024-04-09T09:37:41.859Z,100.00
2024-04-09T09:38:45.498Z,100.00
2024-04-09T09:39:47.928Z,100.00
2024-04-09T09:40:51.914Z,100.00
2024-04-09T09:41:56.574Z,100.00
2024-04-09T09:42:59.030Z,100.00
2024-04-09T09:44:03.637Z,100.00
2024-04-09T09:45:08.115Z,100.00
2024-04-09T09:46:14.662Z,100.00
2024-04-09T09:47:17.589Z,100.00
2024-04-09T09:48:21.668Z,100.00
2024-04-09T09:49:26.136Z,100.00
2024-04-09T09:50:28.065Z,100.00
2024-04-09T09:51:30.805Z,100.00
2024-04-09T09:52:33.493Z,100.00
2024-04-09T09:53:35.839Z,100.00
2024-04-09T09:54:37.922Z,100.00
2024-04-09T09:55:42.762Z,100.00
2024-04-09T09:56:49.866Z,100.00
2024-04-09T09:57:55.059Z,100.00
2024-04-09T09:58:57.825Z,100.00
2024-04-09T10:00:04.848Z,100.00
2024-04-09T10:01:10.772Z,100.00
2024-04-09T10:02:14.291Z,100.00
2024-04-09T10:03:16.735Z,100.00
2024-04-09T10:04:19.888Z,100.00
2024-04-09T10:05:22.072Z,100.00
2024-04-09T10:06:28.650Z,100.00
2024-04-09T10:07:30.502Z,100.00
2024-04-09T10:08:32.229Z,100.00
2024-04-09T10:09:43.549Z,100.00
2024-04-09T10:10:45.367Z,100.00
2024-04-09T10:11:47.025Z,100.00
2024-04-09T10:12:48.753Z,100.00
2024-04-09T10:13:54.342Z,100.00
2024-04-09T10:14:56.731Z,100.00
2024-04-09T10:15:59.831Z,100.00
2024-04-09T10:17:11.827Z,100.00
2024-04-09T10:18:28.310Z,100.00
2024-04-09T10:19:36.503Z,100.00
2024-04-09T10:20:39.058Z,100.00
2024-04-09T10:21:41.149Z,100.00
2024-04-09T10:22:48.032Z,100.00
2024-04-09T10:23:50.336Z,100.00
2024-04-09T10:24:53.427Z,100.00
2024-04-09T10:25:59.022Z,100.00
2024-04-09T10:27:01.002Z,100.00
2024-04-09T10:28:04.726Z,100.00
2024-04-09T10:29:06.480Z,100.00
2024-04-09T10:30:18.542Z,100.00
2024-04-09T10:31:20.137Z,100.00
2024-04-09T10:32:25.605Z,100.00
2024-04-09T10:33:28.953Z,100.00
2024-04-09T10:34:34.570Z,100.00
2024-04-09T10:35:36.445Z,100.00
2024-04-09T10:36:38.608Z,100.00
2024-04-09T10:37:41.732Z,100.00
2024-04-09T10:38:44.631Z,100.00
2024-04-09T10:39:46.837Z,100.00
2024-04-09T10:40:50.427Z,100.00
2024-04-09T10:41:57.606Z,100.00
2024-04-09T10:43:02.502Z,100.00
2024-04-09T10:44:05.356Z,100.00
2024-04-09T10:45:07.757Z,100.00
2024-04-09T10:46:14.522Z,100.00
2024-04-09T10:47:18.068Z,100.00
2024-04-09T10:48:19.880Z,100.00
2024-04-09T10:49:22.749Z,100.00
2024-04-09T10:50:24.472Z,100.00
2024-04-09T10:51:26.182Z,100.00
2024-04-09T10:52:27.880Z,100.00
2024-04-09T10:53:29.454Z,100.00
2024-04-09T10:54:31.703Z,100.00
2024-04-09T10:55:33.364Z,100.00
2024-04-09T10:56:36.292Z,100.00
2024-04-09T10:57:37.984Z,100.00
2024-04-09T10:58:40.186Z,100.00
2024-04-09T10:59:42.108Z,100.00
2024-04-09T11:00:50.290Z,100.00
2024-04-09T11:01:52.403Z,100.00
2024-04-09T11:02:54.531Z,100.00
2024-04-09T11:03:56.263Z,100.00
2024-04-09T11:04:58.008Z,100.00
2024-04-09T11:05:59.676Z,100.00
2024-04-09T11:07:02.152Z,100.00
2024-04-09T11:08:04.000Z,100.00
2024-04-09T11:09:08.054Z,100.00
2024-04-09T11:10:12.179Z,100.00
2024-04-09T11:11:14.075Z,100.00
2024-04-09T11:12:16.320Z,100.00
2024-04-09T11:13:18.391Z,100.00
2024-04-09T11:14:20.097Z,100.00
2024-04-09T11:15:22.400Z,100.00
2024-04-09T11:16:24.066Z,100.00
2024-04-09T11:17:25.746Z,100.00
2024-04-09T11:18:28.197Z,100.00
2024-04-09T11:19:30.825Z,100.00
2024-04-09T11:20:33.827Z,100.00
2024-04-09T11:21:35.625Z,100.00
2024-04-09T11:22:44.004Z,100.00
2024-04-09T11:23:45.755Z,100.00
2024-04-09T11:24:47.589Z,100.00
2024-04-09T11:25:49.856Z,100.00
2024-04-09T11:26:51.624Z,100.00
2024-04-09T11:27:54.630Z,100.00
2024-04-09T11:28:56.515Z,100.00
2024-04-09T11:29:58.110Z,100.00
2024-04-09T11:31:01.468Z,100.00
2024-04-09T11:32:03.945Z,100.00
2024-04-09T11:33:05.732Z,100.00
2024-04-09T11:34:07.501Z,100.00
2024-04-09T11:35:21.714Z,100.00
2024-04-09T11:36:29.897Z,100.00
2024-04-09T11:37:33.873Z,100.00
2024-04-09T11:38:35.583Z,100.00
2024-04-09T11:39:38.274Z,100.00
2024-04-09T11:40:40.027Z,100.00
2024-04-09T11:41:44.700Z,100.00
2024-04-09T11:42:46.594Z,100.00
2024-04-09T11:43:48.183Z,100.00
2024-04-09T11:44:59.526Z,100.00
2024-04-09T11:46:01.983Z,100.00
2024-04-09T11:47:03.786Z,100.00
2024-04-09T11:48:05.802Z,100.00
2024-04-09T11:49:07.498Z,100.00
2024-04-09T11:50:09.094Z,100.00
2024-04-09T11:51:10.866Z,100.00
2024-04-09T11:52:12.622Z,100.00
2024-04-09T11:53:19.957Z,100.00
2024-04-09T11:54:22.470Z,100.00
2024-04-09T11:55:25.709Z,100.00
2024-04-09T11:56:27.803Z,100.00
2024-04-09T11:57:29.537Z,100.00
2024-04-09T11:58:31.167Z,100.00
2024-04-09T11:59:33.078Z,100.00
2024-04-09T12:00:34.787Z,100.00
2024-04-09T12:01:36.540Z,100.00
2024-04-09T12:02:38.429Z,100.00
2024-04-09T12:03:40.423Z,100.00
2024-04-09T12:04:42.574Z,100.00
2024-04-09T12:05:44.516Z,100.00
2024-04-09T12:06:46.330Z,100.00
2024-04-09T12:07:47.962Z,100.00
2024-04-09T12:08:49.593Z,100.00
2024-04-09T12:09:51.345Z,100.00
2024-04-09T12:10:53.952Z,100.00
2024-04-09T12:11:55.633Z,100.00
2024-04-09T12:12:57.252Z,100.00
2024-04-09T12:13:59.664Z,100.00
2024-04-09T12:15:02.412Z,100.00
2024-04-09T12:16:04.428Z,100.00
2024-04-09T12:17:09.021Z,100.00
2024-04-09T12:18:10.767Z,100.00
2024-04-09T12:19:12.580Z,100.00
2024-04-09T12:20:14.291Z,100.00
2024-04-09T12:21:16.042Z,100.00
2024-04-09T12:22:18.073Z,100.00
2024-04-09T12:23:21.723Z,100.00
2024-04-09T12:24:25.353Z,100.00
2024-04-09T12:25:27.066Z,100.00
2024-04-09T12:26:28.687Z,100.00
2024-04-09T12:27:30.416Z,100.00
2024-04-09T12:28:32.031Z,100.00
2024-04-09T12:29:33.642Z,100.00
2024-04-09T12:30:35.664Z,100.00
2024-04-09T12:31:37.713Z,100.00
2024-04-09T12:32:42.029Z,100.00
2024-04-09T12:33:44.059Z,100.00
2024-04-09T12:34:47.363Z,100.00
2024-04-09T12:35:49.163Z,100.00
2024-04-09T12:36:50.774Z,100.00
2024-04-09T12:37:52.357Z,100.00
2024-04-09T12:38:53.927Z,100.00
2024-04-09T12:39:55.576Z,100.00
2024-04-09T12:40:57.392Z,100.00
2024-04-09T12:42:02.175Z,100.00
2024-04-09T12:43:05.413Z,100.00
2024-04-09T12:44:07.252Z,100.00
2024-04-09T12:45:08.970Z,100.00
2024-04-09T12:46:11.247Z,100.00
2024-04-09T12:47:13.095Z,100.00
2024-04-09T12:48:15.092Z,100.00
2024-04-09T12:49:30.843Z,100.00
2024-04-09T12:50:37.010Z,100.00
2024-04-09T12:51:39.577Z,100.00
2024-04-09T12:52:42.043Z,100.00
2024-04-09T12:53:43.639Z,100.00
2024-04-09T12:54:45.472Z,100.00
2024-04-09T12:55:49.132Z,100.00
2024-04-09T12:56:51.178Z,100.00
2024-04-09T12:57:52.768Z,100.00
2024-04-09T12:58:54.382Z,100.00
2024-04-09T13:00:07.011Z,100.00
2024-04-09T13:01:17.793Z,100.00
2024-04-09T13:02:20.207Z,100.00
2024-04-09T13:03:22.507Z,100.00
2024-04-09T13:04:24.208Z,100.00
2024-04-09T13:05:27.101Z,100.00
2024-04-09T13:06:29.052Z,100.00
2024-04-09T13:07:30.943Z,100.00
2024-04-09T13:08:32.540Z,100.00
2024-04-09T13:09:34.212Z,100.00
2024-04-09T13:10:35.859Z,100.00
2024-04-09T13:11:37.752Z,100.00
2024-04-09T13:12:39.488Z,100.00
2024-04-09T13:13:41.150Z,100.00
2024-04-09T13:16:43.649Z,100.00
2024-04-09T13:17:10.001Z,100.00
2024-04-09T13:18:11.820Z,100.00